sensor_id;sensor_type;location;lat;lon;timestamp;P1;durP1;ratioP1;P2;durP2;ratioP2
31638;SDS011;18248;51.522;7.020;2023-02-28T00:00:01;8.55;;;4.32;;
31638;SDS011;18248;51.522;7.020;2023-02-28T00:03:06;12.23;;;4.80;;
31638;SDS011;18248;51.522;7.020;2023-02-28T00:06:06;8.75;;;4.63;;
31638;SDS011;18248;51.522;7.020;2023-02-28T00:09:05;10.02;;;4.20;;
31638;SDS011;18248;51.522;7.020;2023-02-28T00:12:04;8.13;;;4.25;;
31638;SDS011;18248;51.522;7.020;2023-02-28T00:15:09;8.30;;;4.72;;
31638;SDS011;18248;51.522;7.020;2023-02-28T00:18:09;10.85;;;4.45;;
31638;SDS011;18248;51.522;7.020;2023-02-28T00:21:07;7.82;;;4.30;;
31638;SDS011;18248;51.522;7.020;2023-02-28T00:24:06;11.52;;;4.90;;
31638;SDS011;18248;51.522;7.020;2023-02-28T00:27:05;8.98;;;3.92;;
31638;SDS011;18248;51.522;7.020;2023-02-28T00:30:04;9.30;;;4.15;;
31638;SDS011;18248;51.522;7.020;2023-02-28T00:33:05;9.90;;;4.00;;
31638;SDS011;18248;51.522;7.020;2023-02-28T00:36:04;7.90;;;3.95;;
31638;SDS011;18248;51.522;7.020;2023-02-28T00:39:04;9.95;;;4.18;;
31638;SDS011;18248;51.522;7.020;2023-02-28T00:42:06;10.48;;;4.03;;
31638;SDS011;18248;51.522;7.020;2023-02-28T00:45:05;8.10;;;4.20;;
31638;SDS011;18248;51.522;7.020;2023-02-28T00:48:06;7.50;;;3.33;;
31638;SDS011;18248;51.522;7.020;2023-02-28T00:51:05;9.63;;;4.13;;
31638;SDS011;18248;51.522;7.020;2023-02-28T00:54:03;11.15;;;3.75;;
31638;SDS011;18248;51.522;7.020;2023-02-28T00:57:03;8.05;;;3.50;;
31638;SDS011;18248;51.522;7.020;2023-02-28T01:00:02;9.68;;;4.50;;
31638;SDS011;18248;51.522;7.020;2023-02-28T01:03:01;11.40;;;4.40;;
31638;SDS011;18248;51.522;7.020;2023-02-28T01:06:00;9.65;;;4.20;;
31638;SDS011;18248;51.522;7.020;2023-02-28T01:08:59;10.60;;;4.32;;
31638;SDS011;18248;51.522;7.020;2023-02-28T01:11:58;8.05;;;3.65;;
31638;SDS011;18248;51.522;7.020;2023-02-28T01:14:56;12.18;;;3.95;;
31638;SDS011;18248;51.522;7.020;2023-02-28T01:17:55;9.30;;;4.25;;
31638;SDS011;18248;51.522;7.020;2023-02-28T01:20:54;8.23;;;3.80;;
31638;SDS011;18248;51.522;7.020;2023-02-28T01:23:55;8.27;;;3.90;;
31638;SDS011;18248;51.522;7.020;2023-02-28T01:26:55;12.27;;;4.13;;
31638;SDS011;18248;51.522;7.020;2023-02-28T01:29:53;5.15;;;3.20;;
31638;SDS011;18248;51.522;7.020;2023-02-28T01:32:52;9.25;;;3.92;;
31638;SDS011;18248;51.522;7.020;2023-02-28T01:35:57;10.27;;;3.55;;
31638;SDS011;18248;51.522;7.020;2023-02-28T01:39:00;8.88;;;4.18;;
31638;SDS011;18248;51.522;7.020;2023-02-28T01:42:01;7.07;;;3.47;;
31638;SDS011;18248;51.522;7.020;2023-02-28T01:45:02;12.55;;;4.43;;
31638;SDS011;18248;51.522;7.020;2023-02-28T01:48:14;7.22;;;3.83;;
31638;SDS011;18248;51.522;7.020;2023-02-28T01:51:48;6.70;;;3.38;;
31638;SDS011;18248;51.522;7.020;2023-02-28T01:54:50;8.85;;;4.22;;
31638;SDS011;18248;51.522;7.020;2023-02-28T01:57:52;7.90;;;3.80;;
31638;SDS011;18248;51.522;7.020;2023-02-28T02:00:56;8.50;;;3.80;;
31638;SDS011;18248;51.522;7.020;2023-02-28T02:03:56;9.10;;;4.25;;
31638;SDS011;18248;51.522;7.020;2023-02-28T02:06:59;10.18;;;3.50;;
31638;SDS011;18248;51.522;7.020;2023-02-28T02:10:17;9.15;;;3.20;;
31638;SDS011;18248;51.522;7.020;2023-02-28T02:36:47;12.98;;;5.18;;
31638;SDS011;18248;51.522;7.020;2023-02-28T02:43:19;10.80;;;4.30;;
31638;SDS011;18248;51.522;7.020;2023-02-28T02:46:34;7.35;;;4.15;;
31638;SDS011;18248;51.522;7.020;2023-02-28T02:49:39;9.70;;;4.07;;
31638;SDS011;18248;51.522;7.020;2023-02-28T02:52:45;7.55;;;3.28;;
31638;SDS011;18248;51.522;7.020;2023-02-28T02:55:48;13.20;;;4.22;;
31638;SDS011;18248;51.522;7.020;2023-02-28T02:58:52;8.32;;;4.30;;
31638;SDS011;18248;51.522;7.020;2023-02-28T03:01:56;7.55;;;3.80;;
31638;SDS011;18248;51.522;7.020;2023-02-28T03:04:59;10.75;;;4.10;;
31638;SDS011;18248;51.522;7.020;2023-02-28T03:08:03;9.40;;;4.10;;
31638;SDS011;18248;51.522;7.020;2023-02-28T03:11:04;10.20;;;4.43;;
31638;SDS011;18248;51.522;7.020;2023-02-28T03:14:23;9.45;;;3.80;;
31638;SDS011;18248;51.522;7.020;2023-02-28T03:17:27;10.73;;;5.40;;
31638;SDS011;18248;51.522;7.020;2023-02-28T03:20:47;8.70;;;3.85;;
31638;SDS011;18248;51.522;7.020;2023-02-28T03:33:38;6.63;;;3.20;;
31638;SDS011;18248;51.522;7.020;2023-02-28T03:36:47;6.35;;;3.40;;
31638;SDS011;18248;51.522;7.020;2023-02-28T03:39:54;10.02;;;3.83;;
31638;SDS011;18248;51.522;7.020;2023-02-28T03:42:59;7.63;;;3.10;;
31638;SDS011;18248;51.522;7.020;2023-02-28T03:46:06;7.28;;;3.15;;
31638;SDS011;18248;51.522;7.020;2023-02-28T03:49:14;8.00;;;3.95;;
31638;SDS011;18248;51.522;7.020;2023-02-28T03:52:20;11.30;;;3.90;;
31638;SDS011;18248;51.522;7.020;2023-02-28T03:55:23;7.95;;;3.40;;
31638;SDS011;18248;51.522;7.020;2023-02-28T04:01:38;6.00;;;2.97;;
31638;SDS011;18248;51.522;7.020;2023-02-28T04:04:39;5.57;;;2.57;;
31638;SDS011;18248;51.522;7.020;2023-02-28T04:07:46;7.95;;;3.10;;
31638;SDS011;18248;51.522;7.020;2023-02-28T04:10:45;6.55;;;3.20;;
31638;SDS011;18248;51.522;7.020;2023-02-28T04:13:59;9.55;;;3.50;;
31638;SDS011;18248;51.522;7.020;2023-02-28T04:16:58;8.68;;;3.00;;
31638;SDS011;18248;51.522;7.020;2023-02-28T04:19:56;7.57;;;2.83;;
31638;SDS011;18248;51.522;7.020;2023-02-28T04:22:55;5.80;;;3.47;;
31638;SDS011;18248;51.522;7.020;2023-02-28T04:25:54;8.55;;;3.20;;
31638;SDS011;18248;51.522;7.020;2023-02-28T04:28:53;9.45;;;3.35;;
31638;SDS011;18248;51.522;7.020;2023-02-28T04:31:53;7.32;;;2.88;;
31638;SDS011;18248;51.522;7.020;2023-02-28T04:34:56;7.80;;;3.45;;
31638;SDS011;18248;51.522;7.020;2023-02-28T04:37:55;7.72;;;3.55;;
31638;SDS011;18248;51.522;7.020;2023-02-28T04:40:53;8.15;;;3.88;;
31638;SDS011;18248;51.522;7.020;2023-02-28T04:43:55;8.68;;;4.30;;
31638;SDS011;18248;51.522;7.020;2023-02-28T04:46:54;12.10;;;4.63;;
31638;SDS011;18248;51.522;7.020;2023-02-28T04:49:52;7.00;;;4.00;;
31638;SDS011;18248;51.522;7.020;2023-02-28T04:52:51;6.43;;;3.20;;
31638;SDS011;18248;51.522;7.020;2023-02-28T04:55:49;6.43;;;3.28;;
31638;SDS011;18248;51.522;7.020;2023-02-28T04:58:48;7.60;;;3.72;;
31638;SDS011;18248;51.522;7.020;2023-02-28T05:01:47;7.43;;;3.85;;
31638;SDS011;18248;51.522;7.020;2023-02-28T05:04:47;7.53;;;3.80;;
31638;SDS011;18248;51.522;7.020;2023-02-28T05:07:45;9.57;;;4.38;;
31638;SDS011;18248;51.522;7.020;2023-02-28T05:10:44;7.40;;;4.07;;
31638;SDS011;18248;51.522;7.020;2023-02-28T05:13:42;10.73;;;4.85;;
31638;SDS011;18248;51.522;7.020;2023-02-28T05:16:41;7.30;;;3.70;;
31638;SDS011;18248;51.522;7.020;2023-02-28T05:19:40;9.38;;;4.43;;
31638;SDS011;18248;51.522;7.020;2023-02-28T05:22:39;9.73;;;3.80;;
31638;SDS011;18248;51.522;7.020;2023-02-28T05:25:39;7.05;;;3.75;;
31638;SDS011;18248;51.522;7.020;2023-02-28T05:28:38;7.55;;;3.33;;
31638;SDS011;18248;51.522;7.020;2023-02-28T05:31:37;11.77;;;4.47;;
31638;SDS011;18248;51.522;7.020;2023-02-28T05:34:36;7.45;;;3.60;;
31638;SDS011;18248;51.522;7.020;2023-02-28T05:37:38;8.45;;;3.80;;
31638;SDS011;18248;51.522;7.020;2023-02-28T05:40:38;7.60;;;3.35;;
31638;SDS011;18248;51.522;7.020;2023-02-28T05:43:37;8.13;;;3.88;;
31638;SDS011;18248;51.522;7.020;2023-02-28T05:46:36;9.27;;;3.00;;
31638;SDS011;18248;51.522;7.020;2023-02-28T05:49:34;9.05;;;3.00;;
31638;SDS011;18248;51.522;7.020;2023-02-28T05:52:34;6.90;;;3.35;;
31638;SDS011;18248;51.522;7.020;2023-02-28T05:55:33;5.60;;;3.10;;
31638;SDS011;18248;51.522;7.020;2023-02-28T05:58:33;6.35;;;3.30;;
31638;SDS011;18248;51.522;7.020;2023-02-28T06:01:34;8.25;;;3.95;;
31638;SDS011;18248;51.522;7.020;2023-02-28T06:04:45;7.65;;;4.78;;
31638;SDS011;18248;51.522;7.020;2023-02-28T06:07:44;12.77;;;4.15;;
31638;SDS011;18248;51.522;7.020;2023-02-28T06:10:44;9.05;;;3.88;;
31638;SDS011;18248;51.522;7.020;2023-02-28T06:13:43;8.63;;;3.80;;
31638;SDS011;18248;51.522;7.020;2023-02-28T06:16:41;8.18;;;3.80;;
31638;SDS011;18248;51.522;7.020;2023-02-28T06:19:40;6.40;;;3.50;;
31638;SDS011;18248;51.522;7.020;2023-02-28T06:22:39;6.75;;;3.88;;
31638;SDS011;18248;51.522;7.020;2023-02-28T06:25:39;9.90;;;3.60;;
31638;SDS011;18248;51.522;7.020;2023-02-28T06:28:37;11.45;;;4.25;;
31638;SDS011;18248;51.522;7.020;2023-02-28T06:31:36;7.30;;;3.90;;
31638;SDS011;18248;51.522;7.020;2023-02-28T06:34:36;9.43;;;4.13;;
31638;SDS011;18248;51.522;7.020;2023-02-28T06:37:34;15.02;;;5.40;;
31638;SDS011;18248;51.522;7.020;2023-02-28T06:40:33;13.20;;;4.47;;
31638;SDS011;18248;51.522;7.020;2023-02-28T06:43:34;9.00;;;4.18;;
31638;SDS011;18248;51.522;7.020;2023-02-28T06:46:42;10.50;;;4.05;;
31638;SDS011;18248;51.522;7.020;2023-02-28T06:49:43;8.23;;;3.45;;
31638;SDS011;18248;51.522;7.020;2023-02-28T06:52:43;6.60;;;3.40;;
31638;SDS011;18248;51.522;7.020;2023-02-28T06:55:41;5.45;;;3.22;;
31638;SDS011;18248;51.522;7.020;2023-02-28T06:58:40;8.18;;;2.92;;
31638;SDS011;18248;51.522;7.020;2023-02-28T07:01:39;6.90;;;3.40;;
31638;SDS011;18248;51.522;7.020;2023-02-28T07:04:39;11.55;;;3.75;;
31638;SDS011;18248;51.522;7.020;2023-02-28T07:07:38;7.68;;;3.70;;
31638;SDS011;18248;51.522;7.020;2023-02-28T07:10:47;6.45;;;3.00;;
31638;SDS011;18248;51.522;7.020;2023-02-28T07:13:55;10.57;;;3.88;;
31638;SDS011;18248;51.522;7.020;2023-02-28T07:16:55;9.27;;;4.72;;
31638;SDS011;18248;51.522;7.020;2023-02-28T07:19:53;10.85;;;4.03;;
31638;SDS011;18248;51.522;7.020;2023-02-28T07:22:52;11.02;;;3.92;;
31638;SDS011;18248;51.522;7.020;2023-02-28T07:25:54;21.17;;;6.60;;
31638;SDS011;18248;51.522;7.020;2023-02-28T07:28:53;12.63;;;4.55;;
31638;SDS011;18248;51.522;7.020;2023-02-28T07:31:52;8.85;;;3.85;;
31638;SDS011;18248;51.522;7.020;2023-02-28T07:34:53;9.35;;;4.03;;
31638;SDS011;18248;51.522;7.020;2023-02-28T07:37:52;8.93;;;4.43;;
31638;SDS011;18248;51.522;7.020;2023-02-28T07:40:50;12.18;;;4.38;;
31638;SDS011;18248;51.522;7.020;2023-02-28T07:43:49;11.40;;;5.05;;
31638;SDS011;18248;51.522;7.020;2023-02-28T07:46:47;14.25;;;4.45;;
31638;SDS011;18248;51.522;7.020;2023-02-28T07:49:47;20.38;;;7.13;;
31638;SDS011;18248;51.522;7.020;2023-02-28T07:52:46;16.65;;;5.35;;
31638;SDS011;18248;51.522;7.020;2023-02-28T07:55:44;13.20;;;5.72;;
31638;SDS011;18248;51.522;7.020;2023-02-28T07:58:43;22.48;;;5.75;;
31638;SDS011;18248;51.522;7.020;2023-02-28T08:01:41;12.32;;;5.38;;
31638;SDS011;18248;51.522;7.020;2023-02-28T08:04:42;17.25;;;5.30;;
31638;SDS011;18248;51.522;7.020;2023-02-28T08:07:41;18.55;;;6.38;;
31638;SDS011;18248;51.522;7.020;2023-02-28T08:10:39;9.57;;;4.50;;
31638;SDS011;18248;51.522;7.020;2023-02-28T08:13:38;12.68;;;4.32;;
31638;SDS011;18248;51.522;7.020;2023-02-28T08:16:37;10.10;;;4.72;;
31638;SDS011;18248;51.522;7.020;2023-02-28T08:19:36;10.88;;;4.38;;
31638;SDS011;18248;51.522;7.020;2023-02-28T08:22:35;17.15;;;5.30;;
31638;SDS011;18248;51.522;7.020;2023-02-28T08:25:33;15.20;;;4.88;;
31638;SDS011;18248;51.522;7.020;2023-02-28T08:28:32;17.70;;;5.15;;
31638;SDS011;18248;51.522;7.020;2023-02-28T08:31:31;16.60;;;4.88;;
31638;SDS011;18248;51.522;7.020;2023-02-28T08:34:31;12.18;;;4.25;;
31638;SDS011;18248;51.522;7.020;2023-02-28T08:37:29;11.65;;;4.15;;
31638;SDS011;18248;51.522;7.020;2023-02-28T08:40:28;10.25;;;3.85;;
31638;SDS011;18248;51.522;7.020;2023-02-28T08:43:27;11.15;;;3.70;;
31638;SDS011;18248;51.522;7.020;2023-02-28T08:46:26;10.18;;;3.95;;
31638;SDS011;18248;51.522;7.020;2023-02-28T08:49:25;10.80;;;4.45;;
31638;SDS011;18248;51.522;7.020;2023-02-28T08:52:24;9.23;;;3.88;;
31638;SDS011;18248;51.522;7.020;2023-02-28T08:55:23;11.90;;;3.63;;
31638;SDS011;18248;51.522;7.020;2023-02-28T08:58:22;8.70;;;3.17;;
31638;SDS011;18248;51.522;7.020;2023-02-28T09:01:21;9.60;;;4.00;;
31638;SDS011;18248;51.522;7.020;2023-02-28T09:04:27;10.23;;;4.22;;
31638;SDS011;18248;51.522;7.020;2023-02-28T09:07:28;11.63;;;3.75;;
31638;SDS011;18248;51.522;7.020;2023-02-28T09:10:27;9.80;;;3.88;;
31638;SDS011;18248;51.522;7.020;2023-02-28T09:13:26;8.57;;;3.30;;
31638;SDS011;18248;51.522;7.020;2023-02-28T09:16:24;7.25;;;3.13;;
31638;SDS011;18248;51.522;7.020;2023-02-28T09:19:23;7.82;;;2.78;;
31638;SDS011;18248;51.522;7.020;2023-02-28T09:22:21;10.68;;;3.30;;
31638;SDS011;18248;51.522;7.020;2023-02-28T09:25:20;6.15;;;2.67;;
31638;SDS011;18248;51.522;7.020;2023-02-28T09:28:19;10.75;;;3.15;;
31638;SDS011;18248;51.522;7.020;2023-02-28T09:31:20;7.45;;;2.83;;
31638;SDS011;18248;51.522;7.020;2023-02-28T09:34:24;8.45;;;2.53;;
31638;SDS011;18248;51.522;7.020;2023-02-28T09:37:23;3.97;;;2.30;;
31638;SDS011;18248;51.522;7.020;2023-02-28T09:40:24;6.60;;;2.67;;
31638;SDS011;18248;51.522;7.020;2023-02-28T09:43:25;11.00;;;2.50;;
31638;SDS011;18248;51.522;7.020;2023-02-28T09:46:28;7.25;;;1.90;;
31638;SDS011;18248;51.522;7.020;2023-02-28T09:49:39;5.97;;;2.20;;
31638;SDS011;18248;51.522;7.020;2023-02-28T09:52:40;5.85;;;2.20;;
31638;SDS011;18248;51.522;7.020;2023-02-28T09:55:42;7.07;;;2.13;;
31638;SDS011;18248;51.522;7.020;2023-02-28T09:58:58;5.53;;;2.67;;
31638;SDS011;18248;51.522;7.020;2023-02-28T10:06:02;8.32;;;3.08;;
31638;SDS011;18248;51.522;7.020;2023-02-28T10:09:51;6.68;;;2.67;;
31638;SDS011;18248;51.522;7.020;2023-02-28T10:12:30;7.20;;;2.70;;
31638;SDS011;18248;51.522;7.020;2023-02-28T10:15:31;7.57;;;2.60;;
31638;SDS011;18248;51.522;7.020;2023-02-28T10:18:37;7.10;;;2.60;;
31638;SDS011;18248;51.522;7.020;2023-02-28T10:21:46;7.60;;;2.75;;
31638;SDS011;18248;51.522;7.020;2023-02-28T10:24:49;7.07;;;2.30;;
31638;SDS011;18248;51.522;7.020;2023-02-28T10:27:50;4.97;;;2.45;;
31638;SDS011;18248;51.522;7.020;2023-02-28T10:30:53;6.18;;;2.28;;
31638;SDS011;18248;51.522;7.020;2023-02-28T10:33:52;3.53;;;2.10;;
31638;SDS011;18248;51.522;7.020;2023-02-28T10:36:51;4.47;;;1.80;;
31638;SDS011;18248;51.522;7.020;2023-02-28T10:39:51;3.90;;;1.80;;
31638;SDS011;18248;51.522;7.020;2023-02-28T10:43:35;4.90;;;1.50;;
31638;SDS011;18248;51.522;7.020;2023-02-28T10:49:25;3.85;;;1.95;;
31638;SDS011;18248;51.522;7.020;2023-02-28T10:52:38;6.38;;;2.20;;
31638;SDS011;18248;51.522;7.020;2023-02-28T10:55:38;6.80;;;2.10;;
31638;SDS011;18248;51.522;7.020;2023-02-28T11:01:54;4.78;;;1.83;;
31638;SDS011;18248;51.522;7.020;2023-02-28T11:04:53;2.78;;;1.58;;
31638;SDS011;18248;51.522;7.020;2023-02-28T11:07:56;3.58;;;1.52;;
31638;SDS011;18248;51.522;7.020;2023-02-28T11:11:05;4.10;;;1.73;;
31638;SDS011;18248;51.522;7.020;2023-02-28T11:14:05;6.13;;;1.63;;
31638;SDS011;18248;51.522;7.020;2023-02-28T11:17:14;4.03;;;1.65;;
31638;SDS011;18248;51.522;7.020;2023-02-28T11:20:27;3.88;;;1.60;;
31638;SDS011;18248;51.522;7.020;2023-02-28T11:23:29;6.22;;;1.77;;
31638;SDS011;18248;51.522;7.020;2023-02-28T11:26:37;5.25;;;1.95;;
31638;SDS011;18248;51.522;7.020;2023-02-28T11:29:46;3.83;;;1.80;;
31638;SDS011;18248;51.522;7.020;2023-02-28T11:35:48;5.88;;;1.92;;
31638;SDS011;18248;51.522;7.020;2023-02-28T11:38:48;6.35;;;1.58;;
31638;SDS011;18248;51.522;7.020;2023-02-28T11:48:22;5.32;;;1.65;;
31638;SDS011;18248;51.522;7.020;2023-02-28T11:51:30;7.28;;;2.00;;
31638;SDS011;18248;51.522;7.020;2023-02-28T11:54:39;2.70;;;1.50;;
31638;SDS011;18248;51.522;7.020;2023-02-28T12:07:50;3.80;;;1.85;;
31638;SDS011;18248;51.522;7.020;2023-02-28T12:11:09;6.35;;;1.70;;
31638;SDS011;18248;51.522;7.020;2023-02-28T12:14:22;4.88;;;1.88;;
31638;SDS011;18248;51.522;7.020;2023-02-28T12:17:48;3.63;;;1.60;;
31638;SDS011;18248;51.522;7.020;2023-02-28T12:20:54;6.85;;;1.63;;
31638;SDS011;18248;51.522;7.020;2023-02-28T12:27:03;6.10;;;2.00;;
31638;SDS011;18248;51.522;7.020;2023-02-28T12:30:27;5.43;;;1.52;;
31638;SDS011;18248;51.522;7.020;2023-02-28T12:33:32;4.03;;;1.80;;
31638;SDS011;18248;51.522;7.020;2023-02-28T12:36:33;2.88;;;1.60;;
31638;SDS011;18248;51.522;7.020;2023-02-28T12:39:39;4.97;;;2.00;;
31638;SDS011;18248;51.522;7.020;2023-02-28T12:42:42;3.42;;;1.70;;
31638;SDS011;18248;51.522;7.020;2023-02-28T12:45:50;4.20;;;2.05;;
31638;SDS011;18248;51.522;7.020;2023-02-28T12:48:52;4.35;;;1.90;;
31638;SDS011;18248;51.522;7.020;2023-02-28T12:51:57;5.30;;;2.10;;
31638;SDS011;18248;51.522;7.020;2023-02-28T12:55:06;3.53;;;1.88;;
31638;SDS011;18248;51.522;7.020;2023-02-28T12:58:35;3.40;;;1.88;;
31638;SDS011;18248;51.522;7.020;2023-02-28T13:08:57;9.15;;;2.28;;
31638;SDS011;18248;51.522;7.020;2023-02-28T13:12:04;8.20;;;2.10;;
31638;SDS011;18248;51.522;7.020;2023-02-28T13:15:19;4.30;;;1.77;;
31638;SDS011;18248;51.522;7.020;2023-02-28T13:18:26;3.85;;;1.70;;
31638;SDS011;18248;51.522;7.020;2023-02-28T13:21:27;4.90;;;2.30;;
31638;SDS011;18248;51.522;7.020;2023-02-28T13:27:47;4.63;;;2.08;;
31638;SDS011;18248;51.522;7.020;2023-02-28T13:40:30;4.13;;;2.20;;
31638;SDS011;18248;51.522;7.020;2023-02-28T13:47:21;7.72;;;2.28;;
31638;SDS011;18248;51.522;7.020;2023-02-28T13:56:39;5.63;;;2.33;;
31638;SDS011;18248;51.522;7.020;2023-02-28T13:59:51;4.38;;;2.55;;
31638;SDS011;18248;51.522;7.020;2023-02-28T14:06:35;5.35;;;2.47;;
31638;SDS011;18248;51.522;7.020;2023-02-28T14:09:38;6.63;;;2.45;;
31638;SDS011;18248;51.522;7.020;2023-02-28T14:16:09;4.43;;;2.53;;
31638;SDS011;18248;51.522;7.020;2023-02-28T14:29:25;5.85;;;2.55;;
31638;SDS011;18248;51.522;7.020;2023-02-28T14:36:00;6.60;;;2.17;;
31638;SDS011;18248;51.522;7.020;2023-02-28T14:39:17;4.20;;;2.25;;
31638;SDS011;18248;51.522;7.020;2023-02-28T14:42:33;6.70;;;3.05;;
31638;SDS011;18248;51.522;7.020;2023-02-28T14:45:35;6.35;;;2.50;;
31638;SDS011;18248;51.522;7.020;2023-02-28T14:48:35;6.22;;;2.65;;
31638;SDS011;18248;51.522;7.020;2023-02-28T14:51:36;8.30;;;2.85;;
31638;SDS011;18248;51.522;7.020;2023-02-28T14:54:39;6.32;;;2.40;;
31638;SDS011;18248;51.522;7.020;2023-02-28T14:57:42;5.50;;;2.28;;
31638;SDS011;18248;51.522;7.020;2023-02-28T15:00:50;6.85;;;2.47;;
31638;SDS011;18248;51.522;7.020;2023-02-28T15:04:01;4.85;;;2.85;;
31638;SDS011;18248;51.522;7.020;2023-02-28T15:07:13;7.57;;;2.88;;
31638;SDS011;18248;51.522;7.020;2023-02-28T15:10:26;6.07;;;2.28;;
31638;SDS011;18248;51.522;7.020;2023-02-28T15:13:30;7.63;;;2.40;;
31638;SDS011;18248;51.522;7.020;2023-02-28T15:16:42;3.97;;;2.30;;
31638;SDS011;18248;51.522;7.020;2023-02-28T15:19:43;4.82;;;2.53;;
31638;SDS011;18248;51.522;7.020;2023-02-28T15:22:47;4.93;;;2.53;;
31638;SDS011;18248;51.522;7.020;2023-02-28T15:25:48;5.78;;;2.20;;
31638;SDS011;18248;51.522;7.020;2023-02-28T15:28:52;5.75;;;2.42;;
31638;SDS011;18248;51.522;7.020;2023-02-28T15:32:00;5.18;;;2.42;;
31638;SDS011;18248;51.522;7.020;2023-02-28T15:34:59;6.70;;;2.80;;
31638;SDS011;18248;51.522;7.020;2023-02-28T15:38:18;3.80;;;2.33;;
31638;SDS011;18248;51.522;7.020;2023-02-28T15:41:35;4.63;;;2.42;;
31638;SDS011;18248;51.522;7.020;2023-02-28T15:44:36;3.05;;;2.03;;
31638;SDS011;18248;51.522;7.020;2023-02-28T15:47:35;5.50;;;2.20;;
31638;SDS011;18248;51.522;7.020;2023-02-28T15:50:34;4.97;;;2.78;;
31638;SDS011;18248;51.522;7.020;2023-02-28T15:56:47;5.38;;;2.92;;
31638;SDS011;18248;51.522;7.020;2023-02-28T15:59:50;4.82;;;2.97;;
31638;SDS011;18248;51.522;7.020;2023-02-28T16:02:54;4.97;;;3.00;;
31638;SDS011;18248;51.522;7.020;2023-02-28T16:09:19;6.40;;;2.83;;
31638;SDS011;18248;51.522;7.020;2023-02-28T16:12:20;7.95;;;3.22;;
31638;SDS011;18248;51.522;7.020;2023-02-28T16:15:27;5.65;;;2.50;;
31638;SDS011;18248;51.522;7.020;2023-02-28T16:18:27;4.78;;;2.60;;
31638;SDS011;18248;51.522;7.020;2023-02-28T16:21:25;6.07;;;2.72;;
31638;SDS011;18248;51.522;7.020;2023-02-28T16:24:24;6.05;;;2.47;;
31638;SDS011;18248;51.522;7.020;2023-02-28T16:27:31;9.02;;;3.95;;
31638;SDS011;18248;51.522;7.020;2023-02-28T16:30:34;9.13;;;5.35;;
31638;SDS011;18248;51.522;7.020;2023-02-28T16:33:33;13.93;;;5.53;;
31638;SDS011;18248;51.522;7.020;2023-02-28T16:36:32;10.63;;;6.40;;
31638;SDS011;18248;51.522;7.020;2023-02-28T16:39:32;14.30;;;8.88;;
31638;SDS011;18248;51.522;7.020;2023-02-28T16:42:34;7.18;;;3.72;;
31638;SDS011;18248;51.522;7.020;2023-02-28T16:45:32;7.47;;;3.20;;
31638;SDS011;18248;51.522;7.020;2023-02-28T16:48:31;6.90;;;3.00;;
31638;SDS011;18248;51.522;7.020;2023-02-28T16:51:30;6.68;;;3.13;;
31638;SDS011;18248;51.522;7.020;2023-02-28T16:54:29;7.90;;;2.85;;
31638;SDS011;18248;51.522;7.020;2023-02-28T16:57:27;5.80;;;2.65;;
31638;SDS011;18248;51.522;7.020;2023-02-28T17:00:27;6.93;;;2.50;;
31638;SDS011;18248;51.522;7.020;2023-02-28T17:03:27;5.95;;;3.05;;
31638;SDS011;18248;51.522;7.020;2023-02-28T17:06:27;5.47;;;2.88;;
31638;SDS011;18248;51.522;7.020;2023-02-28T17:09:26;4.82;;;3.10;;
31638;SDS011;18248;51.522;7.020;2023-02-28T17:12:25;7.80;;;3.13;;
31638;SDS011;18248;51.522;7.020;2023-02-28T17:15:23;5.80;;;2.63;;
31638;SDS011;18248;51.522;7.020;2023-02-28T17:18:22;6.15;;;3.22;;
31638;SDS011;18248;51.522;7.020;2023-02-28T17:21:20;10.32;;;3.63;;
31638;SDS011;18248;51.522;7.020;2023-02-28T17:24:19;6.65;;;2.88;;
31638;SDS011;18248;51.522;7.020;2023-02-28T17:27:18;8.63;;;3.40;;
31638;SDS011;18248;51.522;7.020;2023-02-28T17:33:25;8.98;;;3.47;;
31638;SDS011;18248;51.522;7.020;2023-02-28T17:36:25;7.65;;;3.42;;
31638;SDS011;18248;51.522;7.020;2023-02-28T17:39:24;11.63;;;3.95;;
31638;SDS011;18248;51.522;7.020;2023-02-28T17:42:23;7.18;;;3.95;;
31638;SDS011;18248;51.522;7.020;2023-02-28T17:45:22;7.35;;;3.20;;
31638;SDS011;18248;51.522;7.020;2023-02-28T17:48:20;7.97;;;3.80;;
31638;SDS011;18248;51.522;7.020;2023-02-28T17:51:20;6.97;;;3.22;;
31638;SDS011;18248;51.522;7.020;2023-02-28T17:54:20;6.72;;;3.40;;
31638;SDS011;18248;51.522;7.020;2023-02-28T17:57:19;9.27;;;3.08;;
31638;SDS011;18248;51.522;7.020;2023-02-28T18:00:18;9.52;;;3.70;;
31638;SDS011;18248;51.522;7.020;2023-02-28T18:03:17;8.30;;;3.22;;
31638;SDS011;18248;51.522;7.020;2023-02-28T18:06:22;10.48;;;4.20;;
31638;SDS011;18248;51.522;7.020;2023-02-28T18:09:23;9.98;;;4.45;;
31638;SDS011;18248;51.522;7.020;2023-02-28T18:12:21;7.43;;;3.88;;
31638;SDS011;18248;51.522;7.020;2023-02-28T18:15:21;9.25;;;3.88;;
31638;SDS011;18248;51.522;7.020;2023-02-28T18:18:20;8.25;;;3.92;;
31638;SDS011;18248;51.522;7.020;2023-02-28T18:21:18;8.52;;;3.70;;
31638;SDS011;18248;51.522;7.020;2023-02-28T18:24:18;9.40;;;4.93;;
31638;SDS011;18248;51.522;7.020;2023-02-28T18:27:17;7.82;;;4.07;;
31638;SDS011;18248;51.522;7.020;2023-02-28T18:30:18;9.82;;;4.35;;
31638;SDS011;18248;51.522;7.020;2023-02-28T18:33:19;10.50;;;4.30;;
31638;SDS011;18248;51.522;7.020;2023-02-28T18:36:18;8.20;;;4.10;;
31638;SDS011;18248;51.522;7.020;2023-02-28T18:39:19;8.93;;;4.10;;
31638;SDS011;18248;51.522;7.020;2023-02-28T18:42:17;9.10;;;4.40;;
31638;SDS011;18248;51.522;7.020;2023-02-28T18:45:16;11.95;;;5.85;;
31638;SDS011;18248;51.522;7.020;2023-02-28T18:48:14;10.93;;;5.05;;
31638;SDS011;18248;51.522;7.020;2023-02-28T18:54:13;10.15;;;5.07;;
31638;SDS011;18248;51.522;7.020;2023-02-28T18:57:14;11.65;;;5.90;;
31638;SDS011;18248;51.522;7.020;2023-02-28T19:00:15;11.32;;;5.15;;
31638;SDS011;18248;51.522;7.020;2023-02-28T19:03:16;10.77;;;5.28;;
31638;SDS011;18248;51.522;7.020;2023-02-28T19:06:15;11.25;;;4.97;;
31638;SDS011;18248;51.522;7.020;2023-02-28T19:09:14;10.55;;;5.35;;
31638;SDS011;18248;51.522;7.020;2023-02-28T19:12:13;14.30;;;5.30;;
31638;SDS011;18248;51.522;7.020;2023-02-28T19:15:14;16.50;;;5.90;;
31638;SDS011;18248;51.522;7.020;2023-02-28T19:18:12;16.38;;;6.45;;
31638;SDS011;18248;51.522;7.020;2023-02-28T19:21:12;13.50;;;5.78;;
31638;SDS011;18248;51.522;7.020;2023-02-28T19:24:12;13.95;;;5.70;;
31638;SDS011;18248;51.522;7.020;2023-02-28T19:27:10;10.88;;;5.22;;
31638;SDS011;18248;51.522;7.020;2023-02-28T19:30:09;13.38;;;5.43;;
31638;SDS011;18248;51.522;7.020;2023-02-28T19:33:09;10.52;;;5.90;;
31638;SDS011;18248;51.522;7.020;2023-02-28T19:36:08;12.98;;;5.97;;
31638;SDS011;18248;51.522;7.020;2023-02-28T19:39:09;13.45;;;6.70;;
31638;SDS011;18248;51.522;7.020;2023-02-28T19:42:08;15.00;;;6.28;;
31638;SDS011;18248;51.522;7.020;2023-02-28T19:45:08;14.18;;;6.20;;
31638;SDS011;18248;51.522;7.020;2023-02-28T19:48:11;15.18;;;6.50;;
31638;SDS011;18248;51.522;7.020;2023-02-28T19:51:11;19.65;;;6.13;;
31638;SDS011;18248;51.522;7.020;2023-02-28T19:54:10;20.75;;;8.48;;
31638;SDS011;18248;51.522;7.020;2023-02-28T19:57:09;14.80;;;6.68;;
31638;SDS011;18248;51.522;7.020;2023-02-28T20:00:08;12.57;;;6.03;;
31638;SDS011;18248;51.522;7.020;2023-02-28T20:03:08;11.23;;;6.78;;
31638;SDS011;18248;51.522;7.020;2023-02-28T20:06:08;11.07;;;5.95;;
31638;SDS011;18248;51.522;7.020;2023-02-28T20:09:09;12.35;;;6.22;;
31638;SDS011;18248;51.522;7.020;2023-02-28T20:12:08;11.10;;;6.25;;
31638;SDS011;18248;51.522;7.020;2023-02-28T20:15:06;12.35;;;6.88;;
31638;SDS011;18248;51.522;7.020;2023-02-28T20:18:05;12.07;;;5.90;;
31638;SDS011;18248;51.522;7.020;2023-02-28T20:21:08;12.57;;;6.00;;
31638;SDS011;18248;51.522;7.020;2023-02-28T20:24:08;14.75;;;6.05;;
31638;SDS011;18248;51.522;7.020;2023-02-28T20:27:08;14.30;;;6.75;;